PGT44WL LTFJ-LIME
Flight info
| Callsign | PGT44WL |
|---|---|
| Flight time | N/A |
| Altitude | 34000 |
| Route | BARPE UG12 GOLDO DCT SUTIS DCT DISOR DCT ENFAR DCT BIGLO DCT TIBRI DCT EDUGI DCT BOA DCT OGPUD DCT BETMU DCT OSBUL |
| Aircraft | A320/M-SDE3FGHIRWY/LB1 |
Departure
| Time | N/A |
|---|---|
| Airport | Istanbul Sabiha Gökçen International Airport (LTFJ) |
Arrival
| Time | 2026-05-01 09:08 |
|---|---|
| Airport | Il Caravaggio International Airport (LIME) |
| Time | Latitude | Longitude | Altitude | Speed | Heading |
|---|---|---|---|---|---|
| 2026-05-01 07:23 | 41.15430 | 23.10925 | 34238 ft | 417 kts | 289° |
| 2026-05-01 07:24 | 41.18326 | 23.00036 | 34243 ft | 417 kts | 289° |
| 2026-05-01 07:24 | 41.20252 | 22.92761 | 34245 ft | 418 kts | 289° |
| 2026-05-01 07:25 | 41.22182 | 22.85489 | 34244 ft | 418 kts | 289° |
| 2026-05-01 07:25 | 41.23784 | 22.79436 | 34250 ft | 418 kts | 288° |
| 2026-05-01 07:26 | 41.25679 | 22.72145 | 34249 ft | 417 kts | 288° |
| 2026-05-01 07:26 | 41.27472 | 22.64812 | 34254 ft | 417 kts | 287° |
| 2026-05-01 07:27 | 41.29231 | 22.57472 | 34261 ft | 417 kts | 287° |
| 2026-05-01 07:27 | 41.31008 | 22.50132 | 34262 ft | 417 kts | 287° |
| 2026-05-01 07:28 | 41.32793 | 22.42797 | 34272 ft | 417 kts | 287° |
| 2026-05-01 07:28 | 41.34572 | 22.35454 | 34267 ft | 417 kts | 287° |
| 2026-05-01 07:29 | 41.36350 | 22.28098 | 34270 ft | 417 kts | 287° |
| 2026-05-01 07:29 | 41.38125 | 22.20742 | 34268 ft | 418 kts | 287° |
| 2026-05-01 07:30 | 41.39889 | 22.13371 | 34274 ft | 418 kts | 287° |
| 2026-05-01 07:30 | 41.41648 | 22.05991 | 34276 ft | 418 kts | 287° |
| 2026-05-01 07:31 | 41.43411 | 21.98607 | 34277 ft | 418 kts | 287° |
| 2026-05-01 07:32 | 41.47788 | 21.80132 | 34278 ft | 418 kts | 287° |
| 2026-05-01 07:33 | 41.50409 | 21.69026 | 34275 ft | 419 kts | 287° |
| 2026-05-01 07:33 | 41.53012 | 21.57902 | 34273 ft | 419 kts | 287° |
| 2026-05-01 07:34 | 41.55590 | 21.46814 | 34268 ft | 419 kts | 287° |
| 2026-05-01 07:35 | 41.57315 | 21.39377 | 34271 ft | 419 kts | 287° |
| 2026-05-01 07:35 | 41.59046 | 21.31939 | 34266 ft | 419 kts | 287° |
| 2026-05-01 07:36 | 41.60763 | 21.24492 | 34264 ft | 419 kts | 287° |
| 2026-05-01 07:36 | 41.62471 | 21.17042 | 34265 ft | 419 kts | 287° |
| 2026-05-01 07:37 | 41.65032 | 21.05861 | 34266 ft | 420 kts | 287° |
| 2026-05-01 07:37 | 41.66739 | 20.98396 | 34264 ft | 420 kts | 287° |
| 2026-05-01 07:38 | 41.68438 | 20.90929 | 34265 ft | 420 kts | 287° |
| 2026-05-01 07:39 | 41.70976 | 20.79713 | 34259 ft | 420 kts | 287° |
| 2026-05-01 07:39 | 41.73511 | 20.68467 | 34244 ft | 421 kts | 287° |
| 2026-05-01 07:40 | 41.75194 | 20.60944 | 34242 ft | 422 kts | 287° |
| 2026-05-01 07:40 | 41.76899 | 20.53426 | 34226 ft | 422 kts | 290° |
| 2026-05-01 07:41 | 41.79169 | 20.46170 | 34216 ft | 422 kts | 293° |
| 2026-05-01 07:42 | 41.82607 | 20.35281 | 34216 ft | 423 kts | 292° |
| 2026-05-01 07:42 | 41.84885 | 20.28005 | 34206 ft | 423 kts | 292° |
| 2026-05-01 07:43 | 41.87162 | 20.20716 | 34208 ft | 424 kts | 292° |
| 2026-05-01 07:43 | 41.90563 | 20.09822 | 34200 ft | 423 kts | 292° |
| 2026-05-01 07:44 | 41.95109 | 19.95235 | 34203 ft | 423 kts | 292° |
| 2026-05-01 07:45 | 41.97362 | 19.87935 | 34196 ft | 423 kts | 292° |
| 2026-05-01 07:45 | 41.99612 | 19.80640 | 34201 ft | 422 kts | 292° |
| 2026-05-01 07:46 | 42.01862 | 19.73333 | 34166 ft | 424 kts | 292° |
| 2026-05-01 07:47 | 42.05237 | 19.62302 | 34164 ft | 426 kts | 292° |
| 2026-05-01 07:47 | 42.07497 | 19.54917 | 34166 ft | 427 kts | 292° |
| 2026-05-01 07:48 | 42.10883 | 19.43817 | 34168 ft | 428 kts | 292° |
| 2026-05-01 07:48 | 42.13133 | 19.36400 | 34183 ft | 428 kts | 292° |
| 2026-05-01 07:49 | 42.16501 | 19.25263 | 34197 ft | 428 kts | 292° |
| 2026-05-01 07:50 | 42.18739 | 19.17833 | 34200 ft | 428 kts | 292° |
| 2026-05-01 07:50 | 42.22087 | 19.06665 | 34197 ft | 429 kts | 293° |
| 2026-05-01 07:51 | 42.24324 | 18.99204 | 34185 ft | 430 kts | 293° |
| 2026-05-01 07:52 | 42.27671 | 18.87958 | 34186 ft | 431 kts | 292° |
| 2026-05-01 07:52 | 42.29887 | 18.80492 | 34189 ft | 431 kts | 292° |
| 2026-05-01 07:53 | 42.33700 | 18.69520 | 34180 ft | 430 kts | 306° |
| 2026-05-01 07:53 | 42.37156 | 18.62906 | 34182 ft | 431 kts | 306° |
| 2026-05-01 07:55 | 42.44515 | 18.45262 | 34188 ft | 433 kts | 296° |
| 2026-05-01 07:56 | 42.50808 | 18.26727 | 34193 ft | 433 kts | 296° |
| 2026-05-01 07:57 | 42.54570 | 18.15585 | 34197 ft | 433 kts | 296° |
| 2026-05-01 07:58 | 42.59562 | 18.00699 | 34210 ft | 434 kts | 296° |
| 2026-05-01 07:59 | 42.64550 | 17.85748 | 34201 ft | 436 kts | 296° |
| 2026-05-01 08:00 | 42.72037 | 17.63205 | 34216 ft | 437 kts | 296° |
| 2026-05-01 08:01 | 42.77008 | 17.48120 | 34228 ft | 437 kts | 296° |
| 2026-05-01 08:02 | 42.80702 | 17.36837 | 34224 ft | 437 kts | 296° |
| 2026-05-01 08:03 | 42.84398 | 17.25487 | 34248 ft | 437 kts | 296° |
| 2026-05-01 08:03 | 42.88081 | 17.14130 | 34257 ft | 437 kts | 296° |
| 2026-05-01 08:04 | 42.92991 | 16.98970 | 34246 ft | 437 kts | 296° |
| 2026-05-01 08:05 | 42.96666 | 16.87574 | 34251 ft | 438 kts | 296° |
| 2026-05-01 08:06 | 43.00331 | 16.76122 | 34249 ft | 439 kts | 296° |
| 2026-05-01 08:07 | 43.05217 | 16.60773 | 34242 ft | 442 kts | 296° |
| 2026-05-01 08:08 | 43.08893 | 16.49175 | 34251 ft | 444 kts | 296° |
| 2026-05-01 08:09 | 43.13794 | 16.33655 | 34234 ft | 444 kts | 295° |
| 2026-05-01 08:09 | 43.16234 | 16.25877 | 34244 ft | 445 kts | 295° |
| 2026-05-01 08:10 | 43.21099 | 16.10336 | 34261 ft | 446 kts | 295° |
| 2026-05-01 08:11 | 43.25963 | 15.94675 | 34268 ft | 447 kts | 295° |
| 2026-05-01 08:12 | 43.29601 | 15.82896 | 34272 ft | 447 kts | 295° |
| 2026-05-01 08:13 | 43.33240 | 15.71100 | 34291 ft | 447 kts | 296° |
| 2026-05-01 08:13 | 43.36871 | 15.59275 | 34273 ft | 448 kts | 296° |
| 2026-05-01 08:14 | 43.39279 | 15.51366 | 34278 ft | 449 kts | 296° |
| 2026-05-01 08:14 | 43.41284 | 15.44782 | 34286 ft | 449 kts | 296° |
| 2026-05-01 08:15 | 43.44892 | 15.32872 | 34298 ft | 450 kts | 296° |
| 2026-05-01 08:16 | 43.47295 | 15.24925 | 34292 ft | 450 kts | 296° |
| 2026-05-01 08:16 | 43.49689 | 15.16974 | 34305 ft | 449 kts | 296° |
| 2026-05-01 08:17 | 43.52081 | 15.09016 | 34307 ft | 449 kts | 296° |
| 2026-05-01 08:17 | 43.54463 | 15.01061 | 34321 ft | 449 kts | 296° |
| 2026-05-01 08:18 | 43.56838 | 14.93091 | 34325 ft | 449 kts | 296° |
| 2026-05-01 08:19 | 43.61569 | 14.77164 | 34321 ft | 448 kts | 297° |
| 2026-05-01 08:19 | 43.63924 | 14.69188 | 34326 ft | 449 kts | 296° |
| 2026-05-01 08:20 | 43.66275 | 14.61201 | 34329 ft | 449 kts | 296° |
| 2026-05-01 08:20 | 43.68625 | 14.53209 | 34325 ft | 449 kts | 297° |
| 2026-05-01 08:21 | 43.70977 | 14.45210 | 34333 ft | 450 kts | 297° |
| 2026-05-01 08:21 | 43.73327 | 14.37199 | 34336 ft | 450 kts | 297° |
| 2026-05-01 08:22 | 43.75655 | 14.29169 | 34333 ft | 450 kts | 296° |
| 2026-05-01 08:22 | 43.77980 | 14.21133 | 34305 ft | 450 kts | 297° |
| 2026-05-01 08:23 | 43.80288 | 14.13070 | 34319 ft | 451 kts | 296° |
| 2026-05-01 08:23 | 43.82513 | 14.04933 | 34325 ft | 453 kts | 295° |
| 2026-05-01 08:24 | 43.84715 | 13.96758 | 34331 ft | 453 kts | 295° |
| 2026-05-01 08:24 | 43.86917 | 13.88634 | 34337 ft | 454 kts | 295° |
| 2026-05-01 08:25 | 43.89136 | 13.80445 | 34323 ft | 454 kts | 296° |
| 2026-05-01 08:25 | 43.91353 | 13.72258 | 34344 ft | 453 kts | 296° |
| 2026-05-01 08:26 | 43.93561 | 13.64067 | 34353 ft | 453 kts | 296° |
| 2026-05-01 08:26 | 43.95761 | 13.55877 | 34356 ft | 453 kts | 296° |
| 2026-05-01 08:27 | 43.97952 | 13.47681 | 34319 ft | 453 kts | 296° |
| 2026-05-01 08:27 | 44.00148 | 13.39448 | 34337 ft | 455 kts | 296° |
| 2026-05-01 08:28 | 44.02341 | 13.31188 | 34340 ft | 456 kts | 296° |
| 2026-05-01 08:28 | 44.04530 | 13.22919 | 34342 ft | 456 kts | 296° |
| 2026-05-01 08:29 | 44.06718 | 13.14636 | 34349 ft | 456 kts | 296° |
| 2026-05-01 08:29 | 44.08908 | 13.06322 | 34345 ft | 460 kts | 296° |
| 2026-05-01 08:30 | 44.11096 | 12.97958 | 34361 ft | 460 kts | 296° |
| 2026-05-01 08:30 | 44.13283 | 12.89587 | 34363 ft | 460 kts | 296° |
| 2026-05-01 08:31 | 44.15466 | 12.81204 | 34375 ft | 460 kts | 296° |
| 2026-05-01 08:31 | 44.17630 | 12.72818 | 34360 ft | 461 kts | 296° |
| 2026-05-01 08:32 | 44.19797 | 12.64418 | 34365 ft | 461 kts | 296° |
| 2026-05-01 08:32 | 44.21961 | 12.56013 | 34390 ft | 461 kts | 296° |
| 2026-05-01 08:33 | 44.24122 | 12.47607 | 34397 ft | 461 kts | 296° |
| 2026-05-01 08:33 | 44.26260 | 12.39247 | 34358 ft | 461 kts | 297° |
| 2026-05-01 08:34 | 44.28426 | 12.30742 | 34399 ft | 462 kts | 297° |
| 2026-05-01 08:34 | 44.30572 | 12.22282 | 34392 ft | 462 kts | 297° |
| 2026-05-01 08:35 | 44.32707 | 12.13817 | 34388 ft | 462 kts | 297° |
| 2026-05-01 08:35 | 44.34837 | 12.05346 | 34391 ft | 462 kts | 297° |
| 2026-05-01 08:36 | 44.36971 | 11.96874 | 34383 ft | 462 kts | 297° |
| 2026-05-01 08:36 | 44.39097 | 11.88396 | 34382 ft | 462 kts | 297° |
| 2026-05-01 08:37 | 44.41211 | 11.79909 | 34384 ft | 462 kts | 297° |
| 2026-05-01 08:37 | 44.43316 | 11.71407 | 34386 ft | 462 kts | 297° |
| 2026-05-01 08:38 | 44.45399 | 11.62965 | 34357 ft | 462 kts | 296° |
| 2026-05-01 08:38 | 44.47496 | 11.54474 | 34375 ft | 462 kts | 296° |
| 2026-05-01 08:38 | 44.48544 | 11.50223 | 34210 ft | 462 kts | 296° |
| 2026-05-01 08:39 | 44.49590 | 11.45962 | 33936 ft | 462 kts | 296° |
| 2026-05-01 08:39 | 44.50632 | 11.41699 | 33668 ft | 463 kts | 296° |
| 2026-05-01 08:39 | 44.51674 | 11.37433 | 33402 ft | 464 kts | 296° |
| 2026-05-01 08:39 | 44.52715 | 11.33150 | 33090 ft | 464 kts | 296° |
| 2026-05-01 08:40 | 44.54869 | 11.24640 | 32527 ft | 462 kts | 298° |
| 2026-05-01 08:40 | 44.56067 | 11.20459 | 32268 ft | 461 kts | 300° |
| 2026-05-01 08:40 | 44.57313 | 11.16317 | 32016 ft | 461 kts | 301° |
| 2026-05-01 08:41 | 44.58580 | 11.12178 | 31761 ft | 462 kts | 301° |
| 2026-05-01 08:41 | 44.59841 | 11.08025 | 31503 ft | 463 kts | 300° |
| 2026-05-01 08:41 | 44.61081 | 11.03856 | 31259 ft | 464 kts | 300° |
| 2026-05-01 08:41 | 44.62306 | 10.99654 | 31016 ft | 465 kts | 300° |
| 2026-05-01 08:42 | 44.63518 | 10.95434 | 30766 ft | 466 kts | 299° |
| 2026-05-01 08:42 | 44.64727 | 10.91200 | 29725 ft | 471 kts | 299° |
| 2026-05-01 08:42 | 44.65955 | 10.86892 | 28449 ft | 478 kts | 299° |
| 2026-05-01 08:42 | 44.67163 | 10.82638 | 27891 ft | 457 kts | 299° |
| 2026-05-01 08:43 | 44.68310 | 10.78556 | 27099 ft | 443 kts | 299° |
| 2026-05-01 08:43 | 44.69435 | 10.74568 | 26446 ft | 436 kts | 299° |
| 2026-05-01 08:43 | 44.70547 | 10.70645 | 25966 ft | 430 kts | 299° |
| 2026-05-01 08:43 | 44.71652 | 10.66770 | 25467 ft | 425 kts | 299° |
| 2026-05-01 08:44 | 44.72746 | 10.62941 | 24960 ft | 419 kts | 298° |
| 2026-05-01 08:44 | 44.73825 | 10.59162 | 24503 ft | 414 kts | 298° |
| 2026-05-01 08:44 | 44.74891 | 10.55423 | 24027 ft | 410 kts | 298° |
| 2026-05-01 08:44 | 44.75943 | 10.51710 | 23492 ft | 406 kts | 298° |
| 2026-05-01 08:45 | 44.76978 | 10.48036 | 23028 ft | 401 kts | 298° |
| 2026-05-01 08:45 | 44.77999 | 10.44410 | 22568 ft | 396 kts | 298° |
| 2026-05-01 08:45 | 44.79008 | 10.40815 | 22086 ft | 393 kts | 298° |
| 2026-05-01 08:45 | 44.80006 | 10.37257 | 21630 ft | 389 kts | 298° |
| 2026-05-01 08:46 | 44.80996 | 10.33763 | 21437 ft | 377 kts | 301° |
| 2026-05-01 08:46 | 44.82260 | 10.30663 | 21343 ft | 355 kts | 314° |
| 2026-05-01 08:46 | 44.83865 | 10.28151 | 21089 ft | 338 kts | 325° |
| 2026-05-01 08:46 | 44.85699 | 10.26217 | 20554 ft | 332 kts | 335° |
| 2026-05-01 08:47 | 44.87644 | 10.24530 | 20175 ft | 325 kts | 334° |
| 2026-05-01 08:47 | 44.89556 | 10.22850 | 19488 ft | 323 kts | 334° |
| 2026-05-01 08:47 | 44.91447 | 10.21174 | 18918 ft | 321 kts | 334° |
| 2026-05-01 08:47 | 44.93341 | 10.19488 | 18478 ft | 321 kts | 333° |
| 2026-05-01 08:48 | 44.95235 | 10.17797 | 18029 ft | 321 kts | 333° |
| 2026-05-01 08:48 | 44.97097 | 10.16135 | 17456 ft | 315 kts | 333° |
| 2026-05-01 08:48 | 44.98936 | 10.14495 | 16865 ft | 310 kts | 333° |
| 2026-05-01 08:48 | 45.00750 | 10.12873 | 16394 ft | 306 kts | 333° |
| 2026-05-01 08:49 | 45.02494 | 10.11309 | 16216 ft | 289 kts | 333° |
| 2026-05-01 08:49 | 45.04177 | 10.09802 | 15931 ft | 285 kts | 333° |
| 2026-05-01 08:49 | 45.05844 | 10.08315 | 15681 ft | 282 kts | 333° |
| 2026-05-01 08:49 | 45.07495 | 10.06841 | 15436 ft | 279 kts | 333° |
| 2026-05-01 08:50 | 45.09128 | 10.05381 | 15178 ft | 277 kts | 333° |
| 2026-05-01 08:50 | 45.10762 | 10.03916 | 14835 ft | 279 kts | 333° |
| 2026-05-01 08:50 | 45.12396 | 10.02446 | 14577 ft | 276 kts | 333° |
| 2026-05-01 08:50 | 45.14026 | 10.00980 | 14220 ft | 279 kts | 332° |
| 2026-05-01 08:51 | 45.15660 | 9.99512 | 13904 ft | 278 kts | 332° |
| 2026-05-01 08:51 | 45.17295 | 9.98042 | 13606 ft | 276 kts | 332° |
| 2026-05-01 08:51 | 45.18920 | 9.96581 | 13195 ft | 275 kts | 332° |
| 2026-05-01 08:51 | 45.20507 | 9.95150 | 12877 ft | 265 kts | 332° |
| 2026-05-01 08:52 | 45.22070 | 9.93843 | 12447 ft | 257 kts | 341° |
| 2026-05-01 08:52 | 45.23777 | 9.93270 | 11850 ft | 251 kts | 4° |
| 2026-05-01 08:52 | 45.25495 | 9.93435 | 11473 ft | 246 kts | 7° |
| 2026-05-01 08:52 | 45.27211 | 9.93634 | 11117 ft | 248 kts | 7° |
| 2026-05-01 08:53 | 45.28940 | 9.93835 | 10766 ft | 250 kts | 7° |
| 2026-05-01 08:53 | 45.30681 | 9.94041 | 10417 ft | 252 kts | 7° |
| 2026-05-01 08:53 | 45.32435 | 9.94251 | 10032 ft | 254 kts | 7° |
| 2026-05-01 08:53 | 45.34201 | 9.94464 | 9662 ft | 255 kts | 7° |
| 2026-05-01 08:54 | 45.35965 | 9.94677 | 9308 ft | 255 kts | 7° |
| 2026-05-01 08:54 | 45.37737 | 9.94891 | 8934 ft | 255 kts | 6° |
| 2026-05-01 08:54 | 45.39508 | 9.95104 | 8563 ft | 256 kts | 6° |
| 2026-05-01 08:54 | 45.41277 | 9.95317 | 8209 ft | 255 kts | 6° |
| 2026-05-01 08:55 | 45.43013 | 9.95525 | 7814 ft | 247 kts | 6° |
| 2026-05-01 08:55 | 45.44697 | 9.95726 | 7437 ft | 239 kts | 6° |
| 2026-05-01 08:55 | 45.46328 | 9.95866 | 7069 ft | 232 kts | 358° |
| 2026-05-01 08:55 | 45.47898 | 9.95467 | 6705 ft | 230 kts | 343° |
| 2026-05-01 08:56 | 45.49340 | 9.94459 | 6160 ft | 241 kts | 327° |
| 2026-05-01 08:56 | 45.50570 | 9.92792 | 5999 ft | 244 kts | 309° |
| 2026-05-01 08:56 | 45.51426 | 9.90679 | 6010 ft | 249 kts | 293° |
| 2026-05-01 08:56 | 45.52058 | 9.88369 | 6005 ft | 251 kts | 293° |
| 2026-05-01 08:57 | 45.52691 | 9.86039 | 6014 ft | 252 kts | 293° |
| 2026-05-01 08:57 | 45.53322 | 9.83704 | 6007 ft | 252 kts | 293° |
| 2026-05-01 08:57 | 45.53945 | 9.81401 | 6016 ft | 252 kts | 293° |
| 2026-05-01 08:57 | 45.54584 | 9.79034 | 6014 ft | 252 kts | 293° |
| 2026-05-01 08:58 | 45.55204 | 9.76738 | 6007 ft | 250 kts | 293° |
| 2026-05-01 08:58 | 45.55826 | 9.74428 | 6006 ft | 249 kts | 292° |
| 2026-05-01 08:58 | 45.56445 | 9.72123 | 6010 ft | 249 kts | 292° |
| 2026-05-01 08:58 | 45.57064 | 9.69819 | 6011 ft | 249 kts | 293° |
| 2026-05-01 08:59 | 45.57677 | 9.67539 | 6010 ft | 241 kts | 293° |
| 2026-05-01 08:59 | 45.58260 | 9.65355 | 6012 ft | 233 kts | 293° |
| 2026-05-01 08:59 | 45.58836 | 9.63201 | 6010 ft | 232 kts | 292° |
| 2026-05-01 08:59 | 45.59412 | 9.61049 | 5815 ft | 232 kts | 292° |
| 2026-05-01 09:00 | 45.59987 | 9.58901 | 5813 ft | 232 kts | 292° |
| 2026-05-01 09:00 | 45.60563 | 9.56748 | 5818 ft | 232 kts | 292° |
| 2026-05-01 09:00 | 45.61132 | 9.54593 | 5820 ft | 232 kts | 289° |
| 2026-05-01 09:00 | 45.61563 | 9.52361 | 5646 ft | 232 kts | 287° |
| 2026-05-01 09:01 | 45.61972 | 9.50140 | 5473 ft | 231 kts | 287° |
| 2026-05-01 09:01 | 45.62377 | 9.47925 | 5299 ft | 230 kts | 286° |
| 2026-05-01 09:01 | 45.62775 | 9.45743 | 5134 ft | 225 kts | 285° |
| 2026-05-01 09:01 | 45.63215 | 9.43634 | 4961 ft | 219 kts | 298° |
| 2026-05-01 09:02 | 45.63815 | 9.42517 | 4853 ft | 211 kts | 323° |
| 2026-05-01 09:02 | 45.65108 | 9.41735 | 4691 ft | 201 kts | 356° |
| 2026-05-01 09:02 | 45.66476 | 9.42019 | 4518 ft | 200 kts | 15° |
| 2026-05-01 09:02 | 45.67817 | 9.42525 | 4329 ft | 199 kts | 15° |
| 2026-05-01 09:03 | 45.69159 | 9.43027 | 4148 ft | 200 kts | 15° |
| 2026-05-01 09:03 | 45.70411 | 9.43829 | 4113 ft | 196 kts | 43° |
| 2026-05-01 09:03 | 45.71123 | 9.45389 | 3950 ft | 184 kts | 77° |
| 2026-05-01 09:03 | 45.71144 | 9.47135 | 3845 ft | 172 kts | 105° |
| 2026-05-01 09:04 | 45.70851 | 9.48716 | 3746 ft | 158 kts | 105° |
| 2026-05-01 09:04 | 45.70577 | 9.50198 | 3661 ft | 153 kts | 105° |
| 2026-05-01 09:04 | 45.70314 | 9.51630 | 3598 ft | 143 kts | 105° |
| 2026-05-01 09:04 | 45.70061 | 9.53000 | 3490 ft | 141 kts | 106° |
| 2026-05-01 09:05 | 45.69812 | 9.54358 | 3257 ft | 139 kts | 107° |
| 2026-05-01 09:05 | 45.69566 | 9.55685 | 2989 ft | 139 kts | 107° |
| 2026-05-01 09:05 | 45.69322 | 9.57007 | 2828 ft | 137 kts | 107° |
| 2026-05-01 09:05 | 45.69075 | 9.58335 | 2580 ft | 139 kts | 107° |
| 2026-05-01 09:06 | 45.68833 | 9.59665 | 2367 ft | 138 kts | 107° |
| 2026-05-01 09:06 | 45.68597 | 9.60989 | 2179 ft | 138 kts | 105° |
| 2026-05-01 09:06 | 45.68351 | 9.62321 | 1901 ft | 138 kts | 107° |
| 2026-05-01 09:06 | 45.68092 | 9.63631 | 1725 ft | 137 kts | 106° |
| 2026-05-01 09:07 | 45.67844 | 9.64945 | 1540 ft | 137 kts | 104° |
| 2026-05-01 09:07 | 45.67609 | 9.66257 | 1332 ft | 135 kts | 105° |
| 2026-05-01 09:07 | 45.67368 | 9.67569 | 1090 ft | 136 kts | 105° |
| 2026-05-01 09:07 | 45.67125 | 9.68862 | 852 ft | 134 kts | 107° |
| 2026-05-01 09:08 | 45.66896 | 9.70077 | 787 ft | 111 kts | 105° |
| 2026-05-01 09:08 | 45.66743 | 9.70911 | 787 ft | 62 kts | 105° |
| 2026-05-01 09:08 | 45.66655 | 9.71387 | 787 ft | 45 kts | 105° |
| 2026-05-01 09:08 | 45.66586 | 9.71756 | 787 ft | 26 kts | 104° |
| 2026-05-01 09:09 | 45.66530 | 9.71913 | 787 ft | 17 kts | 167° |
| 2026-05-01 09:09 | 45.66476 | 9.71827 | 787 ft | 6 kts | 254° |
| 2026-05-01 09:09 | 45.66467 | 9.71779 | 787 ft | 5 kts | 254° |
| 2026-05-01 09:09 | 45.66459 | 9.71739 | 787 ft | 4 kts | 254° |
| 2026-05-01 09:10 | 45.66453 | 9.71709 | 787 ft | 3 kts | 255° |
| 2026-05-01 09:10 | 45.66443 | 9.71654 | 787 ft | 6 kts | 257° |
| 2026-05-01 09:10 | 45.66438 | 9.71596 | 787 ft | 5 kts | 266° |
| 2026-05-01 09:10 | 45.66446 | 9.71506 | 787 ft | 13 kts | 285° |
| 2026-05-01 09:11 | 45.66469 | 9.71383 | 787 ft | 12 kts | 285° |
| 2026-05-01 09:11 | 45.66490 | 9.71273 | 787 ft | 11 kts | 285° |
| 2026-05-01 09:11 | 45.66517 | 9.71164 | 787 ft | 12 kts | 290° |
| 2026-05-01 09:11 | 45.66541 | 9.71062 | 787 ft | 10 kts | 292° |
| 2026-05-01 09:12 | 45.66564 | 9.70960 | 787 ft | 13 kts | 285° |
| 2026-05-01 09:12 | 45.66591 | 9.70818 | 787 ft | 17 kts | 284° |
| 2026-05-01 09:12 | 45.66625 | 9.70631 | 787 ft | 20 kts | 285° |
| 2026-05-01 09:12 | 45.66660 | 9.70447 | 787 ft | 18 kts | 284° |
| 2026-05-01 09:13 | 45.66691 | 9.70279 | 787 ft | 17 kts | 285° |
| 2026-05-01 09:13 | 45.66717 | 9.70135 | 787 ft | 12 kts | 283° |
| 2026-05-01 09:13 | 45.66728 | 9.70043 | 788 ft | 6 kts | 246° |
| 2026-05-01 09:13 | 45.66698 | 9.70013 | 787 ft | 5 kts | 198° |
| 2026-05-01 09:14 | 45.66672 | 9.70003 | 787 ft | 3 kts | 194° |
| 2026-05-01 09:14 | 45.66651 | 9.69996 | 787 ft | 3 kts | 196° |
| 2026-05-01 09:14 | 45.66637 | 9.69990 | 787 ft | 2 kts | 195° |
| 2026-05-01 09:14 | 45.66635 | 9.69989 | 787 ft | 0 kts | 195° |